sensor_id;sensor_type;location;lat;lon;timestamp;P1;durP1;ratioP1;P2;durP2;ratioP2
77571;SDS011;67214;47.454;18.966;2023-09-07T00:00:59;8.83;;;4.67;;
77571;SDS011;67214;47.454;18.966;2023-09-07T00:03:28;9.40;;;5.00;;
77571;SDS011;67214;47.454;18.966;2023-09-07T00:05:56;8.13;;;5.00;;
77571;SDS011;67214;47.454;18.966;2023-09-07T00:08:23;7.15;;;4.72;;
77571;SDS011;67214;47.454;18.966;2023-09-07T00:10:51;7.37;;;4.83;;
77571;SDS011;67214;47.454;18.966;2023-09-07T00:13:18;6.58;;;4.70;;
77571;SDS011;67214;47.454;18.966;2023-09-07T00:15:46;6.10;;;4.58;;
77571;SDS011;67214;47.454;18.966;2023-09-07T00:18:13;6.20;;;4.80;;
77571;SDS011;67214;47.454;18.966;2023-09-07T00:20:40;8.78;;;4.67;;
77571;SDS011;67214;47.454;18.966;2023-09-07T00:23:08;6.33;;;4.90;;
77571;SDS011;67214;47.454;18.966;2023-09-07T00:25:35;7.53;;;4.40;;
77571;SDS011;67214;47.454;18.966;2023-09-07T00:28:03;7.03;;;4.97;;
77571;SDS011;67214;47.454;18.966;2023-09-07T00:30:31;5.58;;;4.37;;
77571;SDS011;67214;47.454;18.966;2023-09-07T00:32:58;6.55;;;4.83;;
77571;SDS011;67214;47.454;18.966;2023-09-07T00:35:25;7.40;;;4.83;;
77571;SDS011;67214;47.454;18.966;2023-09-07T00:37:53;7.12;;;4.90;;
77571;SDS011;67214;47.454;18.966;2023-09-07T00:40:21;6.78;;;4.67;;
77571;SDS011;67214;47.454;18.966;2023-09-07T00:42:49;6.72;;;4.67;;
77571;SDS011;67214;47.454;18.966;2023-09-07T00:45:16;6.55;;;4.62;;
77571;SDS011;67214;47.454;18.966;2023-09-07T00:47:44;7.55;;;4.30;;
77571;SDS011;67214;47.454;18.966;2023-09-07T00:50:12;6.92;;;5.03;;
77571;SDS011;67214;47.454;18.966;2023-09-07T00:52:42;6.87;;;4.83;;
77571;SDS011;67214;47.454;18.966;2023-09-07T00:55:10;5.72;;;4.35;;
77571;SDS011;67214;47.454;18.966;2023-09-07T00:57:39;8.00;;;4.75;;
77571;SDS011;67214;47.454;18.966;2023-09-07T01:00:08;5.67;;;4.67;;
77571;SDS011;67214;47.454;18.966;2023-09-07T01:02:37;5.97;;;4.62;;
77571;SDS011;67214;47.454;18.966;2023-09-07T01:05:05;7.80;;;4.40;;
77571;SDS011;67214;47.454;18.966;2023-09-07T01:07:42;6.83;;;4.40;;
77571;SDS011;67214;47.454;18.966;2023-09-07T01:10:06;6.55;;;5.12;;
77571;SDS011;67214;47.454;18.966;2023-09-07T01:12:35;6.92;;;4.80;;
77571;SDS011;67214;47.454;18.966;2023-09-07T01:15:03;5.67;;;4.30;;
77571;SDS011;67214;47.454;18.966;2023-09-07T01:17:31;6.22;;;4.90;;
77571;SDS011;67214;47.454;18.966;2023-09-07T01:20:02;5.85;;;5.08;;
77571;SDS011;67214;47.454;18.966;2023-09-07T01:22:37;6.85;;;4.50;;
77571;SDS011;67214;47.454;18.966;2023-09-07T01:25:05;5.37;;;4.72;;
77571;SDS011;67214;47.454;18.966;2023-09-07T01:27:34;5.22;;;4.37;;
77571;SDS011;67214;47.454;18.966;2023-09-07T01:30:02;6.62;;;5.25;;
77571;SDS011;67214;47.454;18.966;2023-09-07T01:32:30;7.28;;;4.50;;
77571;SDS011;67214;47.454;18.966;2023-09-07T01:34:57;7.67;;;4.72;;
77571;SDS011;67214;47.454;18.966;2023-09-07T01:37:25;6.08;;;4.30;;
77571;SDS011;67214;47.454;18.966;2023-09-07T01:39:53;5.87;;;4.72;;
77571;SDS011;67214;47.454;18.966;2023-09-07T01:42:20;6.05;;;4.72;;
77571;SDS011;67214;47.454;18.966;2023-09-07T01:44:48;6.00;;;4.67;;
77571;SDS011;67214;47.454;18.966;2023-09-07T01:47:15;9.30;;;5.20;;
77571;SDS011;67214;47.454;18.966;2023-09-07T01:49:42;7.75;;;5.05;;
77571;SDS011;67214;47.454;18.966;2023-09-07T01:52:10;7.87;;;5.15;;
77571;SDS011;67214;47.454;18.966;2023-09-07T01:54:37;9.70;;;5.67;;
77571;SDS011;67214;47.454;18.966;2023-09-07T01:57:05;5.78;;;4.97;;
77571;SDS011;67214;47.454;18.966;2023-09-07T01:59:32;6.22;;;4.67;;
77571;SDS011;67214;47.454;18.966;2023-09-07T02:02:00;7.50;;;4.60;;
77571;SDS011;67214;47.454;18.966;2023-09-07T02:04:27;7.12;;;4.75;;
77571;SDS011;67214;47.454;18.966;2023-09-07T02:06:54;5.92;;;5.08;;
77571;SDS011;67214;47.454;18.966;2023-09-07T02:09:22;7.95;;;5.08;;
77571;SDS011;67214;47.454;18.966;2023-09-07T02:11:49;6.05;;;4.33;;
77571;SDS011;67214;47.454;18.966;2023-09-07T02:14:17;7.03;;;4.62;;
77571;SDS011;67214;47.454;18.966;2023-09-07T02:16:44;7.53;;;4.20;;
77571;SDS011;67214;47.454;18.966;2023-09-07T02:19:11;5.35;;;4.35;;
77571;SDS011;67214;47.454;18.966;2023-09-07T02:21:39;7.72;;;5.05;;
77571;SDS011;67214;47.454;18.966;2023-09-07T02:24:07;6.85;;;5.10;;
77571;SDS011;67214;47.454;18.966;2023-09-07T02:26:34;8.43;;;5.47;;
77571;SDS011;67214;47.454;18.966;2023-09-07T02:29:03;7.05;;;5.08;;
77571;SDS011;67214;47.454;18.966;2023-09-07T02:31:32;5.95;;;4.62;;
77571;SDS011;67214;47.454;18.966;2023-09-07T02:33:59;8.00;;;4.62;;
77571;SDS011;67214;47.454;18.966;2023-09-07T02:36:27;5.85;;;4.90;;
77571;SDS011;67214;47.454;18.966;2023-09-07T02:38:54;7.70;;;4.92;;
77571;SDS011;67214;47.454;18.966;2023-09-07T02:41:22;7.67;;;4.67;;
77571;SDS011;67214;47.454;18.966;2023-09-07T02:46:34;6.53;;;4.42;;
77571;SDS011;67214;47.454;18.966;2023-09-07T02:49:02;6.20;;;4.40;;
77571;SDS011;67214;47.454;18.966;2023-09-07T02:51:29;6.70;;;5.25;;
77571;SDS011;67214;47.454;18.966;2023-09-07T02:53:56;7.92;;;4.97;;
77571;SDS011;67214;47.454;18.966;2023-09-07T02:56:25;7.62;;;4.85;;
77571;SDS011;67214;47.454;18.966;2023-09-07T02:58:52;7.45;;;4.87;;
77571;SDS011;67214;47.454;18.966;2023-09-07T03:01:19;7.95;;;5.55;;
77571;SDS011;67214;47.454;18.966;2023-09-07T03:03:47;8.35;;;5.15;;
77571;SDS011;67214;47.454;18.966;2023-09-07T03:06:15;7.75;;;4.90;;
77571;SDS011;67214;47.454;18.966;2023-09-07T03:08:43;7.50;;;5.00;;
77571;SDS011;67214;47.454;18.966;2023-09-07T03:11:11;8.80;;;5.15;;
77571;SDS011;67214;47.454;18.966;2023-09-07T03:13:38;6.30;;;5.00;;
77571;SDS011;67214;47.454;18.966;2023-09-07T03:16:06;7.47;;;5.40;;
77571;SDS011;67214;47.454;18.966;2023-09-07T03:18:33;7.83;;;4.92;;
77571;SDS011;67214;47.454;18.966;2023-09-07T03:21:01;6.60;;;4.90;;
77571;SDS011;67214;47.454;18.966;2023-09-07T03:23:30;8.10;;;5.47;;
77571;SDS011;67214;47.454;18.966;2023-09-07T03:25:59;7.05;;;4.67;;
77571;SDS011;67214;47.454;18.966;2023-09-07T03:28:26;5.72;;;4.95;;
77571;SDS011;67214;47.454;18.966;2023-09-07T03:30:54;9.73;;;5.15;;
77571;SDS011;67214;47.454;18.966;2023-09-07T03:33:22;7.20;;;4.87;;
77571;SDS011;67214;47.454;18.966;2023-09-07T03:35:50;6.97;;;4.50;;
77571;SDS011;67214;47.454;18.966;2023-09-07T03:38:17;6.83;;;4.53;;
77571;SDS011;67214;47.454;18.966;2023-09-07T03:40:45;8.23;;;5.17;;
77571;SDS011;67214;47.454;18.966;2023-09-07T03:43:12;9.85;;;5.78;;
77571;SDS011;67214;47.454;18.966;2023-09-07T03:45:39;8.95;;;5.05;;
77571;SDS011;67214;47.454;18.966;2023-09-07T03:48:07;7.53;;;4.83;;
77571;SDS011;67214;47.454;18.966;2023-09-07T03:50:35;6.00;;;4.95;;
77571;SDS011;67214;47.454;18.966;2023-09-07T03:53:02;7.35;;;5.05;;
77571;SDS011;67214;47.454;18.966;2023-09-07T03:55:30;7.20;;;5.15;;
77571;SDS011;67214;47.454;18.966;2023-09-07T03:57:59;8.40;;;4.97;;
77571;SDS011;67214;47.454;18.966;2023-09-07T04:00:26;7.05;;;5.17;;
77571;SDS011;67214;47.454;18.966;2023-09-07T04:02:53;8.88;;;5.85;;
77571;SDS011;67214;47.454;18.966;2023-09-07T04:05:22;10.50;;;5.55;;
77571;SDS011;67214;47.454;18.966;2023-09-07T04:07:50;11.40;;;5.78;;
77571;SDS011;67214;47.454;18.966;2023-09-07T04:10:18;9.25;;;5.30;;
77571;SDS011;67214;47.454;18.966;2023-09-07T04:12:45;8.10;;;4.92;;
77571;SDS011;67214;47.454;18.966;2023-09-07T04:15:13;9.33;;;5.55;;
77571;SDS011;67214;47.454;18.966;2023-09-07T04:17:41;8.50;;;5.42;;
77571;SDS011;67214;47.454;18.966;2023-09-07T04:20:08;8.98;;;5.40;;
77571;SDS011;67214;47.454;18.966;2023-09-07T04:22:38;7.15;;;5.28;;
77571;SDS011;67214;47.454;18.966;2023-09-07T04:25:06;7.15;;;5.28;;
77571;SDS011;67214;47.454;18.966;2023-09-07T04:27:34;8.58;;;5.35;;
77571;SDS011;67214;47.454;18.966;2023-09-07T04:30:01;9.78;;;4.90;;
77571;SDS011;67214;47.454;18.966;2023-09-07T04:32:29;7.35;;;5.45;;
77571;SDS011;67214;47.454;18.966;2023-09-07T04:34:56;6.95;;;5.17;;
77571;SDS011;67214;47.454;18.966;2023-09-07T04:37:25;7.30;;;5.55;;
77571;SDS011;67214;47.454;18.966;2023-09-07T04:39:52;7.75;;;5.47;;
77571;SDS011;67214;47.454;18.966;2023-09-07T04:42:20;7.15;;;5.62;;
77571;SDS011;67214;47.454;18.966;2023-09-07T04:44:48;10.88;;;7.55;;
77571;SDS011;67214;47.454;18.966;2023-09-07T04:47:15;14.80;;;10.45;;
77571;SDS011;67214;47.454;18.966;2023-09-07T04:49:47;14.55;;;9.60;;
77571;SDS011;67214;47.454;18.966;2023-09-07T04:52:17;13.65;;;9.45;;
77571;SDS011;67214;47.454;18.966;2023-09-07T04:54:45;15.15;;;8.58;;
77571;SDS011;67214;47.454;18.966;2023-09-07T04:57:13;20.02;;;8.73;;
77571;SDS011;67214;47.454;18.966;2023-09-07T04:59:44;12.80;;;8.05;;
77571;SDS011;67214;47.454;18.966;2023-09-07T05:02:11;12.18;;;7.15;;
77571;SDS011;67214;47.454;18.966;2023-09-07T05:04:39;10.18;;;7.00;;
77571;SDS011;67214;47.454;18.966;2023-09-07T05:07:06;9.83;;;6.70;;
77571;SDS011;67214;47.454;18.966;2023-09-07T05:09:34;12.25;;;6.55;;
77571;SDS011;67214;47.454;18.966;2023-09-07T05:12:01;11.43;;;6.20;;
77571;SDS011;67214;47.454;18.966;2023-09-07T05:14:29;11.73;;;5.95;;
77571;SDS011;67214;47.454;18.966;2023-09-07T05:16:57;10.50;;;5.67;;
77571;SDS011;67214;47.454;18.966;2023-09-07T05:19:24;10.48;;;6.12;;
77571;SDS011;67214;47.454;18.966;2023-09-07T05:21:51;9.85;;;6.17;;
77571;SDS011;67214;47.454;18.966;2023-09-07T05:24:19;8.68;;;6.05;;
77571;SDS011;67214;47.454;18.966;2023-09-07T05:26:46;9.93;;;5.53;;
77571;SDS011;67214;47.454;18.966;2023-09-07T05:29:14;8.78;;;5.85;;
77571;SDS011;67214;47.454;18.966;2023-09-07T05:31:41;10.45;;;6.35;;
77571;SDS011;67214;47.454;18.966;2023-09-07T05:34:09;10.38;;;6.80;;
77571;SDS011;67214;47.454;18.966;2023-09-07T05:36:36;11.57;;;6.50;;
77571;SDS011;67214;47.454;18.966;2023-09-07T05:39:03;11.55;;;6.58;;
77571;SDS011;67214;47.454;18.966;2023-09-07T05:41:31;13.32;;;5.67;;
77571;SDS011;67214;47.454;18.966;2023-09-07T05:43:59;11.80;;;5.95;;
77571;SDS011;67214;47.454;18.966;2023-09-07T05:46:26;12.23;;;6.10;;
77571;SDS011;67214;47.454;18.966;2023-09-07T05:48:54;10.90;;;6.37;;
77571;SDS011;67214;47.454;18.966;2023-09-07T05:51:22;14.13;;;6.42;;
77571;SDS011;67214;47.454;18.966;2023-09-07T05:53:49;8.80;;;6.10;;
77571;SDS011;67214;47.454;18.966;2023-09-07T05:56:17;13.90;;;7.08;;
77571;SDS011;67214;47.454;18.966;2023-09-07T05:58:44;17.30;;;6.97;;
77571;SDS011;67214;47.454;18.966;2023-09-07T06:01:11;10.15;;;6.22;;
77571;SDS011;67214;47.454;18.966;2023-09-07T06:03:39;14.50;;;6.97;;
77571;SDS011;67214;47.454;18.966;2023-09-07T06:06:06;13.40;;;7.62;;
77571;SDS011;67214;47.454;18.966;2023-09-07T06:08:34;10.68;;;7.12;;
77571;SDS011;67214;47.454;18.966;2023-09-07T06:11:01;18.67;;;6.92;;
77571;SDS011;67214;47.454;18.966;2023-09-07T06:13:29;12.23;;;6.62;;
77571;SDS011;67214;47.454;18.966;2023-09-07T06:15:56;14.15;;;6.80;;
77571;SDS011;67214;47.454;18.966;2023-09-07T06:18:25;15.03;;;6.20;;
77571;SDS011;67214;47.454;18.966;2023-09-07T06:20:53;8.75;;;5.85;;
77571;SDS011;67214;47.454;18.966;2023-09-07T06:23:21;12.07;;;6.25;;
77571;SDS011;67214;47.454;18.966;2023-09-07T06:25:48;10.25;;;5.03;;
77571;SDS011;67214;47.454;18.966;2023-09-07T06:28:16;7.72;;;5.20;;
77571;SDS011;67214;47.454;18.966;2023-09-07T06:30:44;12.85;;;6.47;;
77571;SDS011;67214;47.454;18.966;2023-09-07T06:33:11;13.13;;;6.65;;
77571;SDS011;67214;47.454;18.966;2023-09-07T06:35:39;11.90;;;5.83;;
77571;SDS011;67214;47.454;18.966;2023-09-07T06:38:06;15.32;;;7.12;;
77571;SDS011;67214;47.454;18.966;2023-09-07T06:40:34;11.70;;;6.35;;
77571;SDS011;67214;47.454;18.966;2023-09-07T06:43:01;9.55;;;5.72;;
77571;SDS011;67214;47.454;18.966;2023-09-07T06:45:34;11.18;;;6.00;;
77571;SDS011;67214;47.454;18.966;2023-09-07T06:48:02;7.08;;;4.15;;
77571;SDS011;67214;47.454;18.966;2023-09-07T06:50:30;9.65;;;5.35;;
77571;SDS011;67214;47.454;18.966;2023-09-07T06:52:57;11.28;;;5.00;;
77571;SDS011;67214;47.454;18.966;2023-09-07T06:55:25;9.55;;;4.58;;
77571;SDS011;67214;47.454;18.966;2023-09-07T06:57:53;9.65;;;5.50;;
77571;SDS011;67214;47.454;18.966;2023-09-07T07:00:21;20.88;;;5.47;;
77571;SDS011;67214;47.454;18.966;2023-09-07T07:02:48;75.08;;;9.45;;
77571;SDS011;67214;47.454;18.966;2023-09-07T07:05:16;9.68;;;4.87;;
77571;SDS011;67214;47.454;18.966;2023-09-07T07:07:43;15.88;;;4.87;;
77571;SDS011;67214;47.454;18.966;2023-09-07T07:10:11;8.63;;;4.78;;
77571;SDS011;67214;47.454;18.966;2023-09-07T07:12:38;13.75;;;5.50;;
77571;SDS011;67214;47.454;18.966;2023-09-07T07:15:08;7.58;;;5.10;;
77571;SDS011;67214;47.454;18.966;2023-09-07T07:17:37;8.45;;;4.90;;
77571;SDS011;67214;47.454;18.966;2023-09-07T07:20:04;11.25;;;5.50;;
77571;SDS011;67214;47.454;18.966;2023-09-07T07:22:33;8.85;;;5.10;;
77571;SDS011;67214;47.454;18.966;2023-09-07T07:25:01;9.18;;;5.50;;
77571;SDS011;67214;47.454;18.966;2023-09-07T07:27:31;8.28;;;4.90;;
77571;SDS011;67214;47.454;18.966;2023-09-07T07:29:59;9.85;;;5.75;;
77571;SDS011;67214;47.454;18.966;2023-09-07T07:32:27;11.80;;;5.53;;
77571;SDS011;67214;47.454;18.966;2023-09-07T07:34:54;11.60;;;5.50;;
77571;SDS011;67214;47.454;18.966;2023-09-07T07:37:22;12.58;;;5.47;;
77571;SDS011;67214;47.454;18.966;2023-09-07T07:39:50;11.40;;;5.55;;
77571;SDS011;67214;47.454;18.966;2023-09-07T07:42:17;10.63;;;5.17;;
77571;SDS011;67214;47.454;18.966;2023-09-07T07:44:46;9.23;;;5.60;;
77571;SDS011;67214;47.454;18.966;2023-09-07T07:47:15;7.83;;;5.00;;
77571;SDS011;67214;47.454;18.966;2023-09-07T07:49:42;8.63;;;4.90;;
77571;SDS011;67214;47.454;18.966;2023-09-07T07:52:10;10.23;;;5.58;;
77571;SDS011;67214;47.454;18.966;2023-09-07T07:54:37;10.58;;;5.50;;
77571;SDS011;67214;47.454;18.966;2023-09-07T07:57:05;9.45;;;5.37;;
77571;SDS011;67214;47.454;18.966;2023-09-07T07:59:33;9.48;;;5.17;;
77571;SDS011;67214;47.454;18.966;2023-09-07T08:02:01;8.43;;;4.95;;
77571;SDS011;67214;47.454;18.966;2023-09-07T08:04:28;8.53;;;5.58;;
77571;SDS011;67214;47.454;18.966;2023-09-07T08:06:58;10.35;;;5.50;;
77571;SDS011;67214;47.454;18.966;2023-09-07T08:09:27;9.93;;;5.80;;
77571;SDS011;67214;47.454;18.966;2023-09-07T08:11:56;11.45;;;5.83;;
77571;SDS011;67214;47.454;18.966;2023-09-07T08:14:24;10.23;;;5.33;;
77571;SDS011;67214;47.454;18.966;2023-09-07T08:16:53;7.70;;;5.37;;
77571;SDS011;67214;47.454;18.966;2023-09-07T08:19:20;8.03;;;4.90;;
77571;SDS011;67214;47.454;18.966;2023-09-07T08:21:48;8.88;;;5.10;;
77571;SDS011;67214;47.454;18.966;2023-09-07T08:24:15;9.35;;;5.70;;
77571;SDS011;67214;47.454;18.966;2023-09-07T08:26:43;8.05;;;5.37;;
77571;SDS011;67214;47.454;18.966;2023-09-07T08:29:11;8.93;;;5.20;;
77571;SDS011;67214;47.454;18.966;2023-09-07T08:31:38;8.58;;;4.95;;
77571;SDS011;67214;47.454;18.966;2023-09-07T08:34:07;6.10;;;5.00;;
77571;SDS011;67214;47.454;18.966;2023-09-07T08:36:38;9.48;;;5.78;;
77571;SDS011;67214;47.454;18.966;2023-09-07T08:39:06;6.92;;;5.20;;
77571;SDS011;67214;47.454;18.966;2023-09-07T08:41:36;9.83;;;5.90;;
77571;SDS011;67214;47.454;18.966;2023-09-07T08:44:08;9.03;;;5.47;;
77571;SDS011;67214;47.454;18.966;2023-09-07T08:46:37;7.05;;;4.62;;
77571;SDS011;67214;47.454;18.966;2023-09-07T08:49:06;12.05;;;5.85;;
77571;SDS011;67214;47.454;18.966;2023-09-07T08:51:34;8.63;;;5.17;;
77571;SDS011;67214;47.454;18.966;2023-09-07T08:54:08;8.85;;;5.20;;
77571;SDS011;67214;47.454;18.966;2023-09-07T08:56:34;7.92;;;5.17;;
77571;SDS011;67214;47.454;18.966;2023-09-07T08:59:01;8.28;;;5.30;;
77571;SDS011;67214;47.454;18.966;2023-09-07T09:01:30;21.42;;;6.95;;
77571;SDS011;67214;47.454;18.966;2023-09-07T09:03:58;9.60;;;5.47;;
77571;SDS011;67214;47.454;18.966;2023-09-07T09:06:26;7.72;;;4.85;;
77571;SDS011;67214;47.454;18.966;2023-09-07T09:08:55;7.75;;;5.00;;
77571;SDS011;67214;47.454;18.966;2023-09-07T09:11:24;7.95;;;5.20;;
77571;SDS011;67214;47.454;18.966;2023-09-07T09:13:56;8.30;;;4.78;;
77571;SDS011;67214;47.454;18.966;2023-09-07T09:16:23;9.38;;;5.37;;
77571;SDS011;67214;47.454;18.966;2023-09-07T09:18:52;8.08;;;4.87;;
77571;SDS011;67214;47.454;18.966;2023-09-07T09:21:22;35.25;;;9.00;;
77571;SDS011;67214;47.454;18.966;2023-09-07T09:23:51;26.10;;;6.78;;
77571;SDS011;67214;47.454;18.966;2023-09-07T09:26:20;6.97;;;4.47;;
77571;SDS011;67214;47.454;18.966;2023-09-07T09:28:49;10.38;;;4.87;;
77571;SDS011;67214;47.454;18.966;2023-09-07T09:31:18;9.08;;;4.90;;
77571;SDS011;67214;47.454;18.966;2023-09-07T09:33:49;20.70;;;8.13;;
77571;SDS011;67214;47.454;18.966;2023-09-07T09:36:17;8.83;;;4.87;;
77571;SDS011;67214;47.454;18.966;2023-09-07T09:38:47;6.20;;;4.17;;
77571;SDS011;67214;47.454;18.966;2023-09-07T09:41:17;8.78;;;5.03;;
77571;SDS011;67214;47.454;18.966;2023-09-07T09:43:48;5.85;;;4.55;;
77571;SDS011;67214;47.454;18.966;2023-09-07T09:46:16;8.58;;;5.60;;
77571;SDS011;67214;47.454;18.966;2023-09-07T09:48:44;17.35;;;5.45;;
77571;SDS011;67214;47.454;18.966;2023-09-07T09:51:12;5.58;;;4.47;;
77571;SDS011;67214;47.454;18.966;2023-09-07T09:53:42;9.65;;;4.90;;
77571;SDS011;67214;47.454;18.966;2023-09-07T09:56:10;6.92;;;4.50;;
77571;SDS011;67214;47.454;18.966;2023-09-07T09:58:38;5.20;;;4.22;;
77571;SDS011;67214;47.454;18.966;2023-09-07T10:01:06;5.28;;;3.85;;
77571;SDS011;67214;47.454;18.966;2023-09-07T10:03:39;6.95;;;4.85;;
77571;SDS011;67214;47.454;18.966;2023-09-07T10:06:10;10.13;;;4.85;;
77571;SDS011;67214;47.454;18.966;2023-09-07T10:08:40;9.93;;;4.55;;
77571;SDS011;67214;47.454;18.966;2023-09-07T10:11:09;9.40;;;5.53;;
77571;SDS011;67214;47.454;18.966;2023-09-07T10:13:36;6.40;;;4.45;;
77571;SDS011;67214;47.454;18.966;2023-09-07T10:16:04;7.28;;;4.50;;
77571;SDS011;67214;47.454;18.966;2023-09-07T10:18:36;7.05;;;3.75;;
77571;SDS011;67214;47.454;18.966;2023-09-07T10:21:05;4.83;;;4.00;;
77571;SDS011;67214;47.454;18.966;2023-09-07T10:23:37;6.58;;;4.22;;
77571;SDS011;67214;47.454;18.966;2023-09-07T10:26:13;5.63;;;4.57;;
77571;SDS011;67214;47.454;18.966;2023-09-07T10:28:44;5.20;;;4.53;;
77571;SDS011;67214;47.454;18.966;2023-09-07T10:31:24;9.50;;;4.12;;
77571;SDS011;67214;47.454;18.966;2023-09-07T10:33:46;5.83;;;4.10;;
77571;SDS011;67214;47.454;18.966;2023-09-07T10:36:27;6.37;;;4.28;;
77571;SDS011;67214;47.454;18.966;2023-09-07T10:38:55;7.37;;;4.62;;
77571;SDS011;67214;47.454;18.966;2023-09-07T10:41:23;6.30;;;4.50;;
77571;SDS011;67214;47.454;18.966;2023-09-07T10:43:51;8.48;;;4.05;;
77571;SDS011;67214;47.454;18.966;2023-09-07T10:46:21;8.28;;;4.47;;
77571;SDS011;67214;47.454;18.966;2023-09-07T10:48:54;5.42;;;4.60;;
77571;SDS011;67214;47.454;18.966;2023-09-07T10:51:19;6.40;;;4.42;;
77571;SDS011;67214;47.454;18.966;2023-09-07T10:53:47;6.33;;;4.45;;
77571;SDS011;67214;47.454;18.966;2023-09-07T10:56:15;6.97;;;4.87;;
77571;SDS011;67214;47.454;18.966;2023-09-07T10:58:43;7.03;;;4.95;;
77571;SDS011;67214;47.454;18.966;2023-09-07T11:01:10;6.03;;;4.33;;
77571;SDS011;67214;47.454;18.966;2023-09-07T11:03:38;7.30;;;4.95;;
77571;SDS011;67214;47.454;18.966;2023-09-07T11:08:38;6.45;;;4.00;;
77571;SDS011;67214;47.454;18.966;2023-09-07T11:11:07;4.83;;;4.10;;
77571;SDS011;67214;47.454;18.966;2023-09-07T11:13:35;4.50;;;4.10;;
77571;SDS011;67214;47.454;18.966;2023-09-07T11:16:06;10.10;;;5.58;;
77571;SDS011;67214;47.454;18.966;2023-09-07T11:18:33;5.35;;;4.50;;
77571;SDS011;67214;47.454;18.966;2023-09-07T11:21:01;6.17;;;4.35;;
77571;SDS011;67214;47.454;18.966;2023-09-07T11:23:34;4.97;;;3.98;;
77571;SDS011;67214;47.454;18.966;2023-09-07T11:26:11;5.83;;;4.10;;
77571;SDS011;67214;47.454;18.966;2023-09-07T11:28:35;6.55;;;4.40;;
77571;SDS011;67214;47.454;18.966;2023-09-07T11:31:03;7.35;;;4.00;;
77571;SDS011;67214;47.454;18.966;2023-09-07T11:33:31;7.50;;;4.83;;
77571;SDS011;67214;47.454;18.966;2023-09-07T11:35:59;4.92;;;4.30;;
77571;SDS011;67214;47.454;18.966;2023-09-07T11:38:36;7.20;;;4.40;;
77571;SDS011;67214;47.454;18.966;2023-09-07T11:40:58;6.08;;;4.40;;
77571;SDS011;67214;47.454;18.966;2023-09-07T11:43:25;7.62;;;4.53;;
77571;SDS011;67214;47.454;18.966;2023-09-07T11:45:52;5.60;;;4.65;;
77571;SDS011;67214;47.454;18.966;2023-09-07T11:48:20;5.85;;;4.80;;
77571;SDS011;67214;47.454;18.966;2023-09-07T11:50:47;4.75;;;4.25;;
77571;SDS011;67214;47.454;18.966;2023-09-07T11:53:15;6.50;;;4.65;;
77571;SDS011;67214;47.454;18.966;2023-09-07T11:55:42;5.90;;;4.28;;
77571;SDS011;67214;47.454;18.966;2023-09-07T11:58:10;6.05;;;4.35;;
77571;SDS011;67214;47.454;18.966;2023-09-07T12:00:38;5.03;;;4.12;;
77571;SDS011;67214;47.454;18.966;2023-09-07T12:03:07;6.37;;;4.05;;
77571;SDS011;67214;47.454;18.966;2023-09-07T12:05:34;4.58;;;3.62;;
77571;SDS011;67214;47.454;18.966;2023-09-07T12:08:03;6.22;;;4.65;;
77571;SDS011;67214;47.454;18.966;2023-09-07T12:10:31;5.05;;;4.53;;
77571;SDS011;67214;47.454;18.966;2023-09-07T12:12:59;7.25;;;4.17;;
77571;SDS011;67214;47.454;18.966;2023-09-07T12:15:26;5.53;;;4.03;;
77571;SDS011;67214;47.454;18.966;2023-09-07T12:17:54;4.85;;;4.35;;
77571;SDS011;67214;47.454;18.966;2023-09-07T12:20:21;6.78;;;3.83;;
77571;SDS011;67214;47.454;18.966;2023-09-07T12:22:49;5.25;;;3.98;;
77571;SDS011;67214;47.454;18.966;2023-09-07T12:25:17;5.97;;;4.08;;
77571;SDS011;67214;47.454;18.966;2023-09-07T12:27:44;5.62;;;4.15;;
77571;SDS011;67214;47.454;18.966;2023-09-07T12:30:12;6.28;;;4.00;;
77571;SDS011;67214;47.454;18.966;2023-09-07T12:32:40;7.97;;;4.45;;
77571;SDS011;67214;47.454;18.966;2023-09-07T12:35:08;5.60;;;4.10;;
77571;SDS011;67214;47.454;18.966;2023-09-07T12:37:35;6.90;;;4.20;;
77571;SDS011;67214;47.454;18.966;2023-09-07T12:40:03;5.90;;;4.70;;
77571;SDS011;67214;47.454;18.966;2023-09-07T12:42:32;6.92;;;4.25;;
77571;SDS011;67214;47.454;18.966;2023-09-07T12:45:00;5.00;;;4.30;;
77571;SDS011;67214;47.454;18.966;2023-09-07T12:47:27;6.33;;;4.15;;
77571;SDS011;67214;47.454;18.966;2023-09-07T12:49:55;6.53;;;4.83;;
77571;SDS011;67214;47.454;18.966;2023-09-07T12:52:22;5.85;;;4.65;;
77571;SDS011;67214;47.454;18.966;2023-09-07T12:54:50;6.08;;;4.05;;
77571;SDS011;67214;47.454;18.966;2023-09-07T12:57:17;8.58;;;4.33;;
77571;SDS011;67214;47.454;18.966;2023-09-07T12:59:44;5.08;;;4.22;;
77571;SDS011;67214;47.454;18.966;2023-09-07T13:02:12;5.47;;;4.12;;
77571;SDS011;67214;47.454;18.966;2023-09-07T13:04:39;5.95;;;4.28;;
77571;SDS011;67214;47.454;18.966;2023-09-07T13:07:07;5.33;;;4.28;;
77571;SDS011;67214;47.454;18.966;2023-09-07T13:09:34;5.08;;;3.60;;
77571;SDS011;67214;47.454;18.966;2023-09-07T13:12:02;4.15;;;3.75;;
77571;SDS011;67214;47.454;18.966;2023-09-07T13:14:29;6.67;;;4.45;;
77571;SDS011;67214;47.454;18.966;2023-09-07T13:16:57;5.60;;;4.25;;
77571;SDS011;67214;47.454;18.966;2023-09-07T13:19:24;5.10;;;3.83;;
77571;SDS011;67214;47.454;18.966;2023-09-07T13:21:52;8.25;;;4.83;;
77571;SDS011;67214;47.454;18.966;2023-09-07T13:24:19;5.62;;;4.35;;
77571;SDS011;67214;47.454;18.966;2023-09-07T13:26:48;5.05;;;4.37;;
77571;SDS011;67214;47.454;18.966;2023-09-07T13:29:17;6.95;;;4.42;;
77571;SDS011;67214;47.454;18.966;2023-09-07T13:31:45;7.58;;;4.30;;
77571;SDS011;67214;47.454;18.966;2023-09-07T13:34:12;21.50;;;5.75;;
77571;SDS011;67214;47.454;18.966;2023-09-07T13:36:39;5.50;;;4.47;;
77571;SDS011;67214;47.454;18.966;2023-09-07T13:39:07;7.37;;;4.62;;
77571;SDS011;67214;47.454;18.966;2023-09-07T13:41:34;6.28;;;4.70;;
77571;SDS011;67214;47.454;18.966;2023-09-07T13:44:02;6.60;;;4.70;;
77571;SDS011;67214;47.454;18.966;2023-09-07T13:46:29;8.28;;;5.03;;
77571;SDS011;67214;47.454;18.966;2023-09-07T13:48:57;6.05;;;4.72;;
77571;SDS011;67214;47.454;18.966;2023-09-07T13:51:24;5.53;;;4.60;;
77571;SDS011;67214;47.454;18.966;2023-09-07T13:53:52;5.00;;;4.20;;
77571;SDS011;67214;47.454;18.966;2023-09-07T13:56:19;6.62;;;4.80;;
77571;SDS011;67214;47.454;18.966;2023-09-07T13:58:47;7.00;;;4.20;;
77571;SDS011;67214;47.454;18.966;2023-09-07T14:01:14;4.40;;;4.00;;
77571;SDS011;67214;47.454;18.966;2023-09-07T14:03:42;7.70;;;4.40;;
77571;SDS011;67214;47.454;18.966;2023-09-07T14:06:09;5.97;;;4.60;;
77571;SDS011;67214;47.454;18.966;2023-09-07T14:08:37;5.03;;;4.50;;
77571;SDS011;67214;47.454;18.966;2023-09-07T14:11:04;5.40;;;4.50;;
77571;SDS011;67214;47.454;18.966;2023-09-07T14:13:32;4.85;;;4.40;;
77571;SDS011;67214;47.454;18.966;2023-09-07T14:16:01;6.25;;;4.50;;
77571;SDS011;67214;47.454;18.966;2023-09-07T14:18:28;5.25;;;4.60;;
77571;SDS011;67214;47.454;18.966;2023-09-07T14:20:56;7.47;;;4.20;;
77571;SDS011;67214;47.454;18.966;2023-09-07T14:23:24;6.65;;;4.78;;
77571;SDS011;67214;47.454;18.966;2023-09-07T14:25:52;5.17;;;4.67;;
77571;SDS011;67214;47.454;18.966;2023-09-07T14:28:20;5.17;;;4.67;;
77571;SDS011;67214;47.454;18.966;2023-09-07T14:30:47;7.45;;;4.90;;
77571;SDS011;67214;47.454;18.966;2023-09-07T14:33:15;4.70;;;4.15;;
77571;SDS011;67214;47.454;18.966;2023-09-07T14:35:42;7.30;;;4.42;;
77571;SDS011;67214;47.454;18.966;2023-09-07T14:38:10;6.40;;;4.28;;
77571;SDS011;67214;47.454;18.966;2023-09-07T14:40:37;6.72;;;4.37;;